sensor_id;sensor_type;location;lat;lon;timestamp;P1;durP1;ratioP1;P2;durP2;ratioP2
7033;SDS011;3558;53.176;10.412;2024-02-14T03:47:06;1.40;;;1.00;;
7033;SDS011;3558;53.176;10.412;2024-02-14T03:49:32;2.40;;;1.27;;
7033;SDS011;3558;53.176;10.412;2024-02-14T03:51:57;1.50;;;0.98;;
7033;SDS011;3558;53.176;10.412;2024-02-14T03:54:23;1.60;;;0.90;;
7033;SDS011;3558;53.176;10.412;2024-02-14T03:56:48;1.70;;;1.10;;
7033;SDS011;3558;53.176;10.412;2024-02-14T03:59:14;2.10;;;1.20;;
7033;SDS011;3558;53.176;10.412;2024-02-14T04:01:43;1.60;;;1.00;;
7033;SDS011;3558;53.176;10.412;2024-02-14T04:04:10;1.60;;;1.05;;
7033;SDS011;3558;53.176;10.412;2024-02-14T04:06:35;2.70;;;1.20;;
7033;SDS011;3558;53.176;10.412;2024-02-14T04:09:01;1.53;;;1.20;;
7033;SDS011;3558;53.176;10.412;2024-02-14T04:11:26;1.45;;;1.00;;
7033;SDS011;3558;53.176;10.412;2024-02-14T04:13:52;2.20;;;1.10;;
7033;SDS011;3558;53.176;10.412;2024-02-14T04:16:20;1.63;;;1.10;;
7033;SDS011;3558;53.176;10.412;2024-02-14T04:18:46;1.80;;;1.00;;
7033;SDS011;3558;53.176;10.412;2024-02-14T04:21:12;1.77;;;1.20;;
7033;SDS011;3558;53.176;10.412;2024-02-14T04:23:37;1.90;;;1.10;;
7033;SDS011;3558;53.176;10.412;2024-02-14T04:26:04;2.42;;;1.17;;
7033;SDS011;3558;53.176;10.412;2024-02-14T04:28:29;1.95;;;1.15;;
7033;SDS011;3558;53.176;10.412;2024-02-14T04:30:55;1.43;;;1.00;;
7033;SDS011;3558;53.176;10.412;2024-02-14T04:33:21;1.30;;;1.00;;
7033;SDS011;3558;53.176;10.412;2024-02-14T04:35:47;1.75;;;1.00;;
7033;SDS011;3558;53.176;10.412;2024-02-14T04:38:12;2.60;;;1.20;;
7033;SDS011;3558;53.176;10.412;2024-02-14T04:40:38;1.90;;;1.10;;
7033;SDS011;3558;53.176;10.412;2024-02-14T04:43:04;2.83;;;1.40;;
7033;SDS011;3558;53.176;10.412;2024-02-14T04:45:30;1.85;;;1.20;;
7033;SDS011;3558;53.176;10.412;2024-02-14T04:47:55;1.52;;;1.10;;
7033;SDS011;3558;53.176;10.412;2024-02-14T04:50:21;2.05;;;1.40;;
7033;SDS011;3558;53.176;10.412;2024-02-14T04:52:46;2.53;;;1.20;;
7033;SDS011;3558;53.176;10.412;2024-02-14T04:55:12;1.50;;;1.00;;
7033;SDS011;3558;53.176;10.412;2024-02-14T04:57:38;1.97;;;1.17;;
7033;SDS011;3558;53.176;10.412;2024-02-14T05:00:04;1.65;;;1.30;;
7033;SDS011;3558;53.176;10.412;2024-02-14T05:02:30;1.90;;;1.10;;
7033;SDS011;3558;53.176;10.412;2024-02-14T05:04:55;2.05;;;1.38;;
7033;SDS011;3558;53.176;10.412;2024-02-14T05:07:21;1.50;;;1.10;;
7033;SDS011;3558;53.176;10.412;2024-02-14T05:09:47;2.60;;;1.20;;
7033;SDS011;3558;53.176;10.412;2024-02-14T05:12:15;2.20;;;1.25;;
7033;SDS011;3558;53.176;10.412;2024-02-14T05:14:40;1.95;;;1.23;;
7033;SDS011;3558;53.176;10.412;2024-02-14T05:17:07;2.27;;;1.37;;
7033;SDS011;3558;53.176;10.412;2024-02-14T05:19:33;2.10;;;1.35;;
7033;SDS011;3558;53.176;10.412;2024-02-14T05:21:58;1.93;;;1.40;;
7033;SDS011;3558;53.176;10.412;2024-02-14T05:24:24;1.95;;;1.30;;
7033;SDS011;3558;53.176;10.412;2024-02-14T05:26:52;2.10;;;1.20;;
7033;SDS011;3558;53.176;10.412;2024-02-14T05:29:18;2.60;;;1.42;;
7033;SDS011;3558;53.176;10.412;2024-02-14T05:31:46;2.38;;;1.60;;
7033;SDS011;3558;53.176;10.412;2024-02-14T05:34:13;1.98;;;1.33;;
7033;SDS011;3558;53.176;10.412;2024-02-14T05:36:39;2.55;;;1.30;;
7033;SDS011;3558;53.176;10.412;2024-02-14T05:39:05;2.70;;;1.50;;
7033;SDS011;3558;53.176;10.412;2024-02-14T05:41:33;2.10;;;1.40;;
7033;SDS011;3558;53.176;10.412;2024-02-14T05:44:00;2.83;;;1.30;;
7033;SDS011;3558;53.176;10.412;2024-02-14T05:46:26;1.80;;;1.30;;
7033;SDS011;3558;53.176;10.412;2024-02-14T05:48:52;1.95;;;1.20;;
7033;SDS011;3558;53.176;10.412;2024-02-14T05:51:18;2.00;;;1.40;;
7033;SDS011;3558;53.176;10.412;2024-02-14T05:53:44;1.97;;;1.40;;
7033;SDS011;3558;53.176;10.412;2024-02-14T05:56:09;1.70;;;1.35;;
7033;SDS011;3558;53.176;10.412;2024-02-14T05:58:35;2.35;;;1.35;;
7033;SDS011;3558;53.176;10.412;2024-02-14T06:01:00;2.50;;;1.40;;
7033;SDS011;3558;53.176;10.412;2024-02-14T06:03:26;2.67;;;1.50;;
7033;SDS011;3558;53.176;10.412;2024-02-14T06:05:52;1.60;;;1.30;;
7033;SDS011;3558;53.176;10.412;2024-02-14T06:08:18;1.75;;;1.40;;
7033;SDS011;3558;53.176;10.412;2024-02-14T06:10:43;2.20;;;1.50;;
7033;SDS011;3558;53.176;10.412;2024-02-14T06:13:09;1.80;;;1.43;;
7033;SDS011;3558;53.176;10.412;2024-02-14T06:15:34;2.37;;;1.60;;
7033;SDS011;3558;53.176;10.412;2024-02-14T06:18:00;2.58;;;1.67;;
7033;SDS011;3558;53.176;10.412;2024-02-14T06:20:26;2.55;;;1.50;;
7033;SDS011;3558;53.176;10.412;2024-02-14T06:22:51;1.73;;;1.40;;
7033;SDS011;3558;53.176;10.412;2024-02-14T06:25:16;2.33;;;1.50;;
7033;SDS011;3558;53.176;10.412;2024-02-14T06:27:42;3.00;;;1.60;;
7033;SDS011;3558;53.176;10.412;2024-02-14T06:30:08;2.58;;;1.77;;
7033;SDS011;3558;53.176;10.412;2024-02-14T06:32:34;2.60;;;1.30;;
7033;SDS011;3558;53.176;10.412;2024-02-14T06:35:00;2.87;;;1.60;;
7033;SDS011;3558;53.176;10.412;2024-02-14T06:37:25;2.10;;;1.50;;
7033;SDS011;3558;53.176;10.412;2024-02-14T06:39:51;2.30;;;1.40;;
7033;SDS011;3558;53.176;10.412;2024-02-14T06:42:17;1.90;;;1.40;;
7033;SDS011;3558;53.176;10.412;2024-02-14T06:44:42;3.22;;;1.30;;
7033;SDS011;3558;53.176;10.412;2024-02-14T06:47:08;2.22;;;1.50;;
7033;SDS011;3558;53.176;10.412;2024-02-14T06:49:33;2.20;;;1.60;;
7033;SDS011;3558;53.176;10.412;2024-02-14T06:51:59;2.00;;;1.50;;
7033;SDS011;3558;53.176;10.412;2024-02-14T06:54:24;2.80;;;1.60;;
7033;SDS011;3558;53.176;10.412;2024-02-14T06:56:50;2.08;;;1.50;;
7033;SDS011;3558;53.176;10.412;2024-02-14T06:59:15;2.40;;;1.80;;
7033;SDS011;3558;53.176;10.412;2024-02-14T07:01:40;2.13;;;1.53;;
7033;SDS011;3558;53.176;10.412;2024-02-14T07:04:06;2.20;;;1.55;;
7033;SDS011;3558;53.176;10.412;2024-02-14T07:06:32;2.00;;;1.53;;
7033;SDS011;3558;53.176;10.412;2024-02-14T07:08:57;1.73;;;1.40;;
7033;SDS011;3558;53.176;10.412;2024-02-14T07:11:23;2.30;;;1.50;;
7033;SDS011;3558;53.176;10.412;2024-02-14T07:13:49;2.03;;;1.50;;
7033;SDS011;3558;53.176;10.412;2024-02-14T07:16:14;2.07;;;1.37;;
7033;SDS011;3558;53.176;10.412;2024-02-14T07:18:40;2.10;;;1.50;;
7033;SDS011;3558;53.176;10.412;2024-02-14T07:21:06;2.67;;;1.70;;
7033;SDS011;3558;53.176;10.412;2024-02-14T07:23:32;2.53;;;1.57;;
7033;SDS011;3558;53.176;10.412;2024-02-14T07:25:58;1.90;;;1.52;;
7033;SDS011;3558;53.176;10.412;2024-02-14T07:28:24;2.43;;;1.60;;
7033;SDS011;3558;53.176;10.412;2024-02-14T07:30:49;1.50;;;1.40;;
7033;SDS011;3558;53.176;10.412;2024-02-14T07:33:15;1.97;;;1.47;;
7033;SDS011;3558;53.176;10.412;2024-02-14T07:35:40;2.00;;;1.50;;
7033;SDS011;3558;53.176;10.412;2024-02-14T07:38:07;2.20;;;1.40;;
7033;SDS011;3558;53.176;10.412;2024-02-14T07:40:33;2.00;;;1.70;;
7033;SDS011;3558;53.176;10.412;2024-02-14T07:42:58;2.13;;;1.67;;
7033;SDS011;3558;53.176;10.412;2024-02-14T07:45:24;2.67;;;2.17;;
7033;SDS011;3558;53.176;10.412;2024-02-14T07:47:50;2.85;;;2.00;;
7033;SDS011;3558;53.176;10.412;2024-02-14T07:50:15;2.45;;;1.70;;
7033;SDS011;3558;53.176;10.412;2024-02-14T07:52:42;2.75;;;1.70;;
7033;SDS011;3558;53.176;10.412;2024-02-14T07:55:08;2.85;;;1.80;;
7033;SDS011;3558;53.176;10.412;2024-02-14T07:57:37;2.22;;;1.70;;
7033;SDS011;3558;53.176;10.412;2024-02-14T08:00:03;2.17;;;1.60;;
7033;SDS011;3558;53.176;10.412;2024-02-14T08:02:30;2.03;;;1.67;;
7033;SDS011;3558;53.176;10.412;2024-02-14T08:04:56;1.83;;;1.50;;
7033;SDS011;3558;53.176;10.412;2024-02-14T08:07:21;2.03;;;1.60;;
7033;SDS011;3558;53.176;10.412;2024-02-14T08:09:47;2.07;;;1.50;;
7033;SDS011;3558;53.176;10.412;2024-02-14T08:12:12;2.03;;;1.52;;
7033;SDS011;3558;53.176;10.412;2024-02-14T08:14:37;1.80;;;1.30;;
7033;SDS011;3558;53.176;10.412;2024-02-14T08:17:03;2.00;;;1.33;;
7033;SDS011;3558;53.176;10.412;2024-02-14T08:19:29;1.50;;;1.33;;
7033;SDS011;3558;53.176;10.412;2024-02-14T08:21:54;2.50;;;1.43;;
7033;SDS011;3558;53.176;10.412;2024-02-14T08:24:24;2.20;;;1.60;;
7033;SDS011;3558;53.176;10.412;2024-02-14T08:26:50;1.42;;;1.10;;
7033;SDS011;3558;53.176;10.412;2024-02-14T08:29:16;1.80;;;1.20;;
7033;SDS011;3558;53.176;10.412;2024-02-14T08:31:41;2.38;;;1.20;;
7033;SDS011;3558;53.176;10.412;2024-02-14T08:34:07;1.30;;;1.13;;
7033;SDS011;3558;53.176;10.412;2024-02-14T08:36:34;1.63;;;1.17;;
7033;SDS011;3558;53.176;10.412;2024-02-14T08:39:06;1.87;;;1.23;;
7033;SDS011;3558;53.176;10.412;2024-02-14T08:41:35;1.15;;;1.05;;
7033;SDS011;3558;53.176;10.412;2024-02-14T08:44:01;1.52;;;1.23;;
7033;SDS011;3558;53.176;10.412;2024-02-14T08:46:26;1.90;;;1.20;;
7033;SDS011;3558;53.176;10.412;2024-02-14T08:48:52;1.67;;;1.33;;
7033;SDS011;3558;53.176;10.412;2024-02-14T08:51:18;1.90;;;1.20;;
7033;SDS011;3558;53.176;10.412;2024-02-14T08:53:47;1.60;;;1.10;;
7033;SDS011;3558;53.176;10.412;2024-02-14T08:56:13;1.43;;;1.00;;
7033;SDS011;3558;53.176;10.412;2024-02-14T08:58:38;1.60;;;1.10;;
7033;SDS011;3558;53.176;10.412;2024-02-14T09:01:04;1.90;;;1.20;;
7033;SDS011;3558;53.176;10.412;2024-02-14T09:03:30;1.30;;;1.00;;
7033;SDS011;3558;53.176;10.412;2024-02-14T09:05:56;2.13;;;1.13;;
7033;SDS011;3558;53.176;10.412;2024-02-14T09:08:22;2.40;;;1.20;;
7033;SDS011;3558;53.176;10.412;2024-02-14T09:10:49;1.00;;;0.90;;
7033;SDS011;3558;53.176;10.412;2024-02-14T09:13:17;1.23;;;0.90;;
7033;SDS011;3558;53.176;10.412;2024-02-14T09:15:43;1.60;;;0.90;;
7033;SDS011;3558;53.176;10.412;2024-02-14T09:18:08;2.10;;;1.00;;
7033;SDS011;3558;53.176;10.412;2024-02-14T09:20:34;1.23;;;0.93;;
7033;SDS011;3558;53.176;10.412;2024-02-14T09:23:00;1.50;;;0.90;;
7033;SDS011;3558;53.176;10.412;2024-02-14T09:25:25;1.35;;;0.90;;
7033;SDS011;3558;53.176;10.412;2024-02-14T09:27:51;1.00;;;0.82;;
7033;SDS011;3558;53.176;10.412;2024-02-14T09:30:17;1.85;;;0.90;;
7033;SDS011;3558;53.176;10.412;2024-02-14T09:32:44;1.40;;;0.80;;
7033;SDS011;3558;53.176;10.412;2024-02-14T09:35:10;1.10;;;0.80;;
7033;SDS011;3558;53.176;10.412;2024-02-14T09:37:35;0.90;;;0.80;;
7033;SDS011;3558;53.176;10.412;2024-02-14T09:40:03;0.90;;;0.70;;
7033;SDS011;3558;53.176;10.412;2024-02-14T09:42:37;0.95;;;0.70;;
7033;SDS011;3558;53.176;10.412;2024-02-14T09:45:09;1.02;;;0.70;;
7033;SDS011;3558;53.176;10.412;2024-02-14T09:47:36;0.70;;;0.60;;
7033;SDS011;3558;53.176;10.412;2024-02-14T09:50:03;0.77;;;0.63;;
7033;SDS011;3558;53.176;10.412;2024-02-14T09:52:32;0.85;;;0.73;;
7033;SDS011;3558;53.176;10.412;2024-02-14T09:54:58;1.20;;;0.60;;
7033;SDS011;3558;53.176;10.412;2024-02-14T09:57:24;0.87;;;0.60;;
7033;SDS011;3558;53.176;10.412;2024-02-14T09:59:51;0.98;;;0.60;;
7033;SDS011;3558;53.176;10.412;2024-02-14T10:02:18;1.05;;;0.60;;
7033;SDS011;3558;53.176;10.412;2024-02-14T10:04:45;0.55;;;0.50;;
7033;SDS011;3558;53.176;10.412;2024-02-14T10:07:10;0.80;;;0.50;;
7033;SDS011;3558;53.176;10.412;2024-02-14T10:09:42;1.10;;;0.50;;
7033;SDS011;3558;53.176;10.412;2024-02-14T10:12:08;0.70;;;0.50;;
7033;SDS011;3558;53.176;10.412;2024-02-14T10:14:34;0.85;;;0.50;;
7033;SDS011;3558;53.176;10.412;2024-02-14T10:17:03;0.85;;;0.50;;
7033;SDS011;3558;53.176;10.412;2024-02-14T10:19:29;0.50;;;0.50;;
7033;SDS011;3558;53.176;10.412;2024-02-14T10:21:59;0.60;;;0.40;;
7033;SDS011;3558;53.176;10.412;2024-02-14T10:24:29;0.70;;;0.50;;
7033;SDS011;3558;53.176;10.412;2024-02-14T10:26:55;0.50;;;0.50;;
7033;SDS011;3558;53.176;10.412;2024-02-14T10:29:24;0.57;;;0.40;;
7033;SDS011;3558;53.176;10.412;2024-02-14T10:31:50;0.50;;;0.47;;
7033;SDS011;3558;53.176;10.412;2024-02-14T10:34:15;0.80;;;0.50;;
7033;SDS011;3558;53.176;10.412;2024-02-14T10:36:44;1.00;;;0.50;;
7033;SDS011;3558;53.176;10.412;2024-02-14T10:39:13;0.50;;;0.40;;
7033;SDS011;3558;53.176;10.412;2024-02-14T10:41:40;0.30;;;0.30;;
7033;SDS011;3558;53.176;10.412;2024-02-14T10:44:06;0.50;;;0.40;;
7033;SDS011;3558;53.176;10.412;2024-02-14T10:46:32;0.60;;;0.47;;
7033;SDS011;3558;53.176;10.412;2024-02-14T10:49:07;0.50;;;0.40;;
7033;SDS011;3558;53.176;10.412;2024-02-14T10:51:36;0.40;;;0.40;;
7033;SDS011;3558;53.176;10.412;2024-02-14T10:54:04;0.30;;;0.30;;
7033;SDS011;3558;53.176;10.412;2024-02-14T10:56:34;0.57;;;0.43;;
7033;SDS011;3558;53.176;10.412;2024-02-14T10:59:03;0.47;;;0.40;;
7033;SDS011;3558;53.176;10.412;2024-02-14T11:01:30;0.40;;;0.40;;
7033;SDS011;3558;53.176;10.412;2024-02-14T11:04:00;0.40;;;0.40;;
7033;SDS011;3558;53.176;10.412;2024-02-14T11:06:29;0.40;;;0.40;;
7033;SDS011;3558;53.176;10.412;2024-02-14T11:09:00;0.70;;;0.40;;
7033;SDS011;3558;53.176;10.412;2024-02-14T11:11:31;0.47;;;0.40;;
7033;SDS011;3558;53.176;10.412;2024-02-14T11:13:57;0.30;;;0.30;;
7033;SDS011;3558;53.176;10.412;2024-02-14T11:16:26;0.40;;;0.40;;
7033;SDS011;3558;53.176;10.412;2024-02-14T11:19:07;0.40;;;0.40;;
7033;SDS011;3558;53.176;10.412;2024-02-14T11:21:36;0.50;;;0.40;;
7033;SDS011;3558;53.176;10.412;2024-02-14T11:24:07;0.30;;;0.30;;
7033;SDS011;3558;53.176;10.412;2024-02-14T11:26:39;0.32;;;0.30;;
7033;SDS011;3558;53.176;10.412;2024-02-14T11:29:15;0.40;;;0.40;;
7033;SDS011;3558;53.176;10.412;2024-02-14T11:31:41;0.40;;;0.38;;
7033;SDS011;3558;53.176;10.412;2024-02-14T11:34:08;0.38;;;0.38;;
7033;SDS011;3558;53.176;10.412;2024-02-14T11:36:36;0.40;;;0.40;;
7033;SDS011;3558;53.176;10.412;2024-02-14T11:39:04;0.40;;;0.30;;
7033;SDS011;3558;53.176;10.412;2024-02-14T11:41:32;0.40;;;0.40;;
7033;SDS011;3558;53.176;10.412;2024-02-14T11:44:01;0.45;;;0.40;;
7033;SDS011;3558;53.176;10.412;2024-02-14T11:46:34;0.35;;;0.30;;
7033;SDS011;3558;53.176;10.412;2024-02-14T11:49:01;0.30;;;0.30;;
7033;SDS011;3558;53.176;10.412;2024-02-14T11:51:28;0.30;;;0.30;;
7033;SDS011;3558;53.176;10.412;2024-02-14T11:53:54;0.55;;;0.40;;
7033;SDS011;3558;53.176;10.412;2024-02-14T11:56:20;0.40;;;0.30;;
7033;SDS011;3558;53.176;10.412;2024-02-14T11:58:47;0.60;;;0.50;;
7033;SDS011;3558;53.176;10.412;2024-02-14T12:01:15;0.50;;;0.43;;
7033;SDS011;3558;53.176;10.412;2024-02-14T12:03:44;0.50;;;0.40;;
7033;SDS011;3558;53.176;10.412;2024-02-14T12:06:10;0.50;;;0.50;;
7033;SDS011;3558;53.176;10.412;2024-02-14T12:08:36;0.40;;;0.40;;
7033;SDS011;3558;53.176;10.412;2024-02-14T12:11:03;0.45;;;0.45;;
7033;SDS011;3558;53.176;10.412;2024-02-14T12:13:30;0.57;;;0.55;;
7033;SDS011;3558;53.176;10.412;2024-02-14T12:15:57;0.50;;;0.50;;
7033;SDS011;3558;53.176;10.412;2024-02-14T12:18:23;0.60;;;0.50;;
7033;SDS011;3558;53.176;10.412;2024-02-14T12:20:48;0.40;;;0.40;;
7033;SDS011;3558;53.176;10.412;2024-02-14T12:23:16;0.60;;;0.50;;
7033;SDS011;3558;53.176;10.412;2024-02-14T12:25:42;0.60;;;0.60;;
7033;SDS011;3558;53.176;10.412;2024-02-14T12:28:13;0.63;;;0.50;;
7033;SDS011;3558;53.176;10.412;2024-02-14T12:30:50;0.93;;;0.68;;
7033;SDS011;3558;53.176;10.412;2024-02-14T12:33:25;0.70;;;0.60;;
7033;SDS011;3558;53.176;10.412;2024-02-14T12:35:52;0.65;;;0.60;;
7033;SDS011;3558;53.176;10.412;2024-02-14T12:38:20;1.05;;;0.70;;
7033;SDS011;3558;53.176;10.412;2024-02-14T12:40:48;1.10;;;0.70;;
7033;SDS011;3558;53.176;10.412;2024-02-14T12:43:14;0.60;;;0.60;;
7033;SDS011;3558;53.176;10.412;2024-02-14T12:45:41;0.93;;;0.80;;
7033;SDS011;3558;53.176;10.412;2024-02-14T12:48:07;1.20;;;1.00;;
7033;SDS011;3558;53.176;10.412;2024-02-14T12:50:34;1.00;;;0.80;;
7033;SDS011;3558;53.176;10.412;2024-02-14T12:53:00;0.95;;;0.70;;
7033;SDS011;3558;53.176;10.412;2024-02-14T12:55:27;1.10;;;0.80;;
7033;SDS011;3558;53.176;10.412;2024-02-14T12:57:53;1.20;;;0.90;;
7033;SDS011;3558;53.176;10.412;2024-02-14T13:00:19;1.05;;;0.90;;
7033;SDS011;3558;53.176;10.412;2024-02-14T13:02:46;1.58;;;1.00;;
7033;SDS011;3558;53.176;10.412;2024-02-14T13:05:12;1.88;;;1.17;;
7033;SDS011;3558;53.176;10.412;2024-02-14T13:07:38;1.07;;;0.97;;
7033;SDS011;3558;53.176;10.412;2024-02-14T13:10:04;1.27;;;0.90;;
7033;SDS011;3558;53.176;10.412;2024-02-14T13:12:30;1.40;;;1.07;;
7033;SDS011;3558;53.176;10.412;2024-02-14T13:14:55;1.37;;;1.00;;
7033;SDS011;3558;53.176;10.412;2024-02-14T13:17:21;1.75;;;1.20;;
7033;SDS011;3558;53.176;10.412;2024-02-14T13:19:48;1.30;;;0.90;;
7033;SDS011;3558;53.176;10.412;2024-02-14T13:22:14;1.27;;;1.00;;
7033;SDS011;3558;53.176;10.412;2024-02-14T13:24:40;1.33;;;0.95;;
7033;SDS011;3558;53.176;10.412;2024-02-14T13:27:06;1.98;;;1.10;;
7033;SDS011;3558;53.176;10.412;2024-02-14T13:29:32;1.10;;;0.90;;
7033;SDS011;3558;53.176;10.412;2024-02-14T13:31:57;1.38;;;0.98;;
7033;SDS011;3558;53.176;10.412;2024-02-14T13:34:23;1.13;;;0.80;;
7033;SDS011;3558;53.176;10.412;2024-02-14T13:36:49;1.35;;;1.10;;
7033;SDS011;3558;53.176;10.412;2024-02-14T13:39:14;1.40;;;0.90;;
7033;SDS011;3558;53.176;10.412;2024-02-14T13:41:40;1.13;;;1.00;;
7033;SDS011;3558;53.176;10.412;2024-02-14T13:44:08;0.90;;;0.90;;
7033;SDS011;3558;53.176;10.412;2024-02-14T13:46:34;1.00;;;0.90;;
7033;SDS011;3558;53.176;10.412;2024-02-14T13:49:00;1.00;;;0.90;;
7033;SDS011;3558;53.176;10.412;2024-02-14T13:51:26;1.00;;;0.90;;
7033;SDS011;3558;53.176;10.412;2024-02-14T13:53:52;1.10;;;0.95;;
7033;SDS011;3558;53.176;10.412;2024-02-14T13:56:18;1.02;;;0.90;;
7033;SDS011;3558;53.176;10.412;2024-02-14T13:58:46;1.08;;;0.95;;
7033;SDS011;3558;53.176;10.412;2024-02-14T14:01:12;1.05;;;0.85;;
7033;SDS011;3558;53.176;10.412;2024-02-14T14:03:37;1.27;;;0.90;;
7033;SDS011;3558;53.176;10.412;2024-02-14T14:06:03;1.70;;;1.07;;
7033;SDS011;3558;53.176;10.412;2024-02-14T14:08:30;1.00;;;0.90;;
7033;SDS011;3558;53.176;10.412;2024-02-14T14:10:56;1.60;;;0.90;;
7033;SDS011;3558;53.176;10.412;2024-02-14T14:13:21;1.00;;;0.90;;
7033;SDS011;3558;53.176;10.412;2024-02-14T14:15:47;1.00;;;0.90;;
7033;SDS011;3558;53.176;10.412;2024-02-14T14:18:12;1.10;;;1.00;;
7033;SDS011;3558;53.176;10.412;2024-02-14T14:20:38;1.30;;;1.03;;
7033;SDS011;3558;53.176;10.412;2024-02-14T14:23:03;1.47;;;1.10;;
7033;SDS011;3558;53.176;10.412;2024-02-14T14:25:29;1.20;;;1.10;;
7033;SDS011;3558;53.176;10.412;2024-02-14T14:27:56;1.10;;;0.98;;
7033;SDS011;3558;53.176;10.412;2024-02-14T14:30:27;1.15;;;1.00;;
7033;SDS011;3558;53.176;10.412;2024-02-14T14:32:53;2.17;;;1.13;;
7033;SDS011;3558;53.176;10.412;2024-02-14T14:35:18;1.30;;;1.10;;
7033;SDS011;3558;53.176;10.412;2024-02-14T14:37:44;1.60;;;1.20;;
7033;SDS011;3558;53.176;10.412;2024-02-14T14:40:10;1.27;;;1.10;;
7033;SDS011;3558;53.176;10.412;2024-02-14T14:42:36;1.10;;;1.00;;
7033;SDS011;3558;53.176;10.412;2024-02-14T14:45:02;1.20;;;1.10;;
7033;SDS011;3558;53.176;10.412;2024-02-14T14:47:28;1.40;;;1.25;;
7033;SDS011;3558;53.176;10.412;2024-02-14T14:49:54;1.10;;;1.00;;
7033;SDS011;3558;53.176;10.412;2024-02-14T14:52:19;1.25;;;1.15;;
7033;SDS011;3558;53.176;10.412;2024-02-14T14:54:45;1.47;;;1.20;;
7033;SDS011;3558;53.176;10.412;2024-02-14T14:57:11;1.40;;;1.10;;
7033;SDS011;3558;53.176;10.412;2024-02-14T14:59:40;1.50;;;1.30;;
7033;SDS011;3558;53.176;10.412;2024-02-14T15:02:06;1.23;;;1.13;;
7033;SDS011;3558;53.176;10.412;2024-02-14T15:04:32;1.45;;;1.20;;
7033;SDS011;3558;53.176;10.412;2024-02-14T15:06:59;1.40;;;1.25;;
7033;SDS011;3558;53.176;10.412;2024-02-14T15:09:25;1.53;;;1.20;;
7033;SDS011;3558;53.176;10.412;2024-02-14T15:11:51;1.53;;;1.27;;
7033;SDS011;3558;53.176;10.412;2024-02-14T15:14:17;1.50;;;1.40;;
7033;SDS011;3558;53.176;10.412;2024-02-14T15:16:43;1.40;;;1.30;;
7033;SDS011;3558;53.176;10.412;2024-02-14T15:19:08;2.10;;;1.50;;
7033;SDS011;3558;53.176;10.412;2024-02-14T15:21:34;1.50;;;1.40;;
7033;SDS011;3558;53.176;10.412;2024-02-14T15:24:00;1.50;;;1.40;;
7033;SDS011;3558;53.176;10.412;2024-02-14T15:26:25;1.80;;;1.58;;
7033;SDS011;3558;53.176;10.412;2024-02-14T15:28:51;2.10;;;1.90;;
7033;SDS011;3558;53.176;10.412;2024-02-14T15:31:37;2.75;;;1.98;;
7033;SDS011;3558;53.176;10.412;2024-02-14T15:34:21;2.30;;;2.00;;
7033;SDS011;3558;53.176;10.412;2024-02-14T15:36:46;2.30;;;2.00;;
7033;SDS011;3558;53.176;10.412;2024-02-14T15:39:12;2.30;;;2.10;;
7033;SDS011;3558;53.176;10.412;2024-02-14T15:41:37;2.53;;;2.05;;
7033;SDS011;3558;53.176;10.412;2024-02-14T15:44:03;3.93;;;2.30;;
7033;SDS011;3558;53.176;10.412;2024-02-14T15:46:30;2.47;;;2.28;;
7033;SDS011;3558;53.176;10.412;2024-02-14T15:48:56;2.40;;;2.17;;
7033;SDS011;3558;53.176;10.412;2024-02-14T15:51:22;2.35;;;2.00;;
7033;SDS011;3558;53.176;10.412;2024-02-14T15:53:49;2.42;;;1.95;;
7033;SDS011;3558;53.176;10.412;2024-02-14T15:56:14;2.45;;;2.15;;
7033;SDS011;3558;53.176;10.412;2024-02-14T15:58:40;2.30;;;2.03;;
7033;SDS011;3558;53.176;10.412;2024-02-14T16:01:05;2.30;;;2.07;;
7033;SDS011;3558;53.176;10.412;2024-02-14T16:03:31;2.10;;;1.90;;
7033;SDS011;3558;53.176;10.412;2024-02-14T16:05:57;2.13;;;1.92;;
7033;SDS011;3558;53.176;10.412;2024-02-14T16:08:23;2.08;;;1.88;;
7033;SDS011;3558;53.176;10.412;2024-02-14T16:10:49;2.20;;;2.00;;
7033;SDS011;3558;53.176;10.412;2024-02-14T16:13:15;2.00;;;1.80;;
7033;SDS011;3558;53.176;10.412;2024-02-14T16:15:41;2.23;;;2.03;;
7033;SDS011;3558;53.176;10.412;2024-02-14T16:18:07;2.08;;;1.88;;
7033;SDS011;3558;53.176;10.412;2024-02-14T16:20:33;2.20;;;2.00;;
7033;SDS011;3558;53.176;10.412;2024-02-14T16:22:58;2.03;;;1.80;;
7033;SDS011;3558;53.176;10.412;2024-02-14T16:25:24;2.28;;;2.03;;
7033;SDS011;3558;53.176;10.412;2024-02-14T16:27:54;2.30;;;2.10;;
7033;SDS011;3558;53.176;10.412;2024-02-14T16:30:20;2.17;;;1.90;;
7033;SDS011;3558;53.176;10.412;2024-02-14T16:32:45;2.10;;;1.90;;
7033;SDS011;3558;53.176;10.412;2024-02-14T16:35:12;2.30;;;2.10;;
7033;SDS011;3558;53.176;10.412;2024-02-14T16:37:38;2.40;;;2.20;;
7033;SDS011;3558;53.176;10.412;2024-02-14T16:40:04;2.40;;;2.20;;
7033;SDS011;3558;53.176;10.412;2024-02-14T16:42:30;2.65;;;2.45;;
7033;SDS011;3558;53.176;10.412;2024-02-14T16:44:55;2.50;;;2.30;;
7033;SDS011;3558;53.176;10.412;2024-02-14T16:47:21;2.80;;;2.60;;
7033;SDS011;3558;53.176;10.412;2024-02-14T16:49:46;3.35;;;2.47;;
7033;SDS011;3558;53.176;10.412;2024-02-14T16:52:13;3.10;;;2.80;;
7033;SDS011;3558;53.176;10.412;2024-02-14T16:54:38;2.85;;;2.55;;
7033;SDS011;3558;53.176;10.412;2024-02-14T16:57:04;3.10;;;2.80;;
7033;SDS011;3558;53.176;10.412;2024-02-14T16:59:40;3.20;;;2.87;;
7033;SDS011;3558;53.176;10.412;2024-02-14T17:02:07;3.05;;;2.85;;
7033;SDS011;3558;53.176;10.412;2024-02-14T17:04:33;2.90;;;2.45;;
7033;SDS011;3558;53.176;10.412;2024-02-14T17:06:59;3.20;;;2.90;;
7033;SDS011;3558;53.176;10.412;2024-02-14T17:09:24;3.40;;;2.80;;
7033;SDS011;3558;53.176;10.412;2024-02-14T17:11:50;3.60;;;3.30;;
7033;SDS011;3558;53.176;10.412;2024-02-14T17:14:16;3.30;;;3.00;;
7033;SDS011;3558;53.176;10.412;2024-02-14T17:16:42;3.60;;;3.30;;
7033;SDS011;3558;53.176;10.412;2024-02-14T17:19:07;3.20;;;2.90;;
7033;SDS011;3558;53.176;10.412;2024-02-14T17:21:33;4.20;;;3.90;;
7033;SDS011;3558;53.176;10.412;2024-02-14T17:24:00;3.77;;;3.47;;
7033;SDS011;3558;53.176;10.412;2024-02-14T17:26:25;3.73;;;3.43;;
7033;SDS011;3558;53.176;10.412;2024-02-14T17:28:51;3.38;;;3.08;;
7033;SDS011;3558;53.176;10.412;2024-02-14T17:31:17;3.63;;;3.33;;
7033;SDS011;3558;53.176;10.412;2024-02-14T17:33:42;4.10;;;3.80;;
7033;SDS011;3558;53.176;10.412;2024-02-14T17:36:08;3.70;;;3.40;;
7033;SDS011;3558;53.176;10.412;2024-02-14T17:38:33;4.00;;;3.60;;
7033;SDS011;3558;53.176;10.412;2024-02-14T17:41:01;4.20;;;3.80;;
7033;SDS011;3558;53.176;10.412;2024-02-14T17:43:27;4.05;;;3.75;;
7033;SDS011;3558;53.176;10.412;2024-02-14T17:45:53;3.70;;;3.40;;
7033;SDS011;3558;53.176;10.412;2024-02-14T17:48:19;3.72;;;3.40;;
7033;SDS011;3558;53.176;10.412;2024-02-14T17:50:45;3.80;;;3.40;;
7033;SDS011;3558;53.176;10.412;2024-02-14T17:53:10;3.70;;;3.40;;
7033;SDS011;3558;53.176;10.412;2024-02-14T17:55:36;3.70;;;3.40;;
7033;SDS011;3558;53.176;10.412;2024-02-14T17:58:01;3.60;;;3.30;;
7033;SDS011;3558;53.176;10.412;2024-02-14T18:00:28;3.50;;;3.20;;
7033;SDS011;3558;53.176;10.412;2024-02-14T18:02:54;3.23;;;3.00;;
7033;SDS011;3558;53.176;10.412;2024-02-14T18:05:19;3.13;;;2.92;;
7033;SDS011;3558;53.176;10.412;2024-02-14T18:07:45;3.58;;;3.28;;
7033;SDS011;3558;53.176;10.412;2024-02-14T18:10:10;3.50;;;3.20;;
7033;SDS011;3558;53.176;10.412;2024-02-14T18:12:36;3.40;;;3.10;;
7033;SDS011;3558;53.176;10.412;2024-02-14T18:15:02;3.10;;;2.90;;
7033;SDS011;3558;53.176;10.412;2024-02-14T18:17:28;3.40;;;3.10;;
7033;SDS011;3558;53.176;10.412;2024-02-14T18:19:54;3.00;;;2.70;;
7033;SDS011;3558;53.176;10.412;2024-02-14T18:22:20;3.20;;;2.90;;
7033;SDS011;3558;53.176;10.412;2024-02-14T18:24:45;2.90;;;2.70;;
7033;SDS011;3558;53.176;10.412;2024-02-14T18:27:12;2.90;;;2.70;;
7033;SDS011;3558;53.176;10.412;2024-02-14T18:29:38;2.90;;;2.70;;
7033;SDS011;3558;53.176;10.412;2024-02-14T18:32:03;2.93;;;2.70;;
7033;SDS011;3558;53.176;10.412;2024-02-14T18:34:29;2.87;;;2.67;;
7033;SDS011;3558;53.176;10.412;2024-02-14T18:36:56;2.60;;;2.40;;
7033;SDS011;3558;53.176;10.412;2024-02-14T18:39:21;2.75;;;2.55;;
7033;SDS011;3558;53.176;10.412;2024-02-14T18:41:47;2.50;;;2.30;;